Time;durP1;ratioP1;P1;durP2;ratioP2;P2;SDS_P1;SDS_P2;PMS_P1;PMS_P2;Temp;Humidity;BMP_temperature;BMP_pressure;BME280_temperature;BME280_humidity;BME280_pressure;Samples;Min_cycle;Max_cycle;Signal;HPM_P1;HPM_P2
2020/12/04 00:01:42;;;;;;;5.10;2.33;;;8.10;99.90;;;;;;5084322;28;21209;-48
2020/12/04 00:04:08;;;;;;;2.97;1.75;;;8.10;99.90;;;;;;5084711;28;20039;-47
2020/12/04 00:06:34;;;;;;;4.68;2.30;;;8.10;99.90;;;;;;5086007;28;20032;-49
2020/12/04 00:09:01;;;;;;;2.97;1.50;;;8.10;99.90;;;;;;5080633;28;20027;-47
2020/12/04 00:11:27;;;;;;;2.50;1.40;;;8.10;99.90;;;;;;5064403;28;20437;-48
2020/12/04 00:13:53;;;;;;;2.05;1.17;;;8.10;99.90;;;;;;5071088;28;20024;-50
2020/12/04 00:16:18;;;;;;;3.33;1.45;;;8.10;99.90;;;;;;5080609;28;20697;-47
2020/12/04 00:18:44;;;;;;;3.65;1.92;;;8.10;99.90;;;;;;5066283;28;20489;-47
2020/12/04 00:21:12;;;;;;;2.20;1.30;;;8.10;99.90;;;;;;5066784;28;20029;-48
2020/12/04 00:23:38;;;;;;;2.42;1.30;;;8.10;99.90;;;;;;5074934;28;20493;-46
2020/12/04 00:26:04;;;;;;;2.28;1.30;;;8.10;99.90;;;;;;5068347;28;20051;-47
2020/12/04 00:28:29;;;;;;;1.98;1.17;;;8.10;99.90;;;;;;5075731;28;20036;-47
2020/12/04 00:30:55;;;;;;;3.13;1.23;;;8.10;99.90;;;;;;5083919;28;20040;-48
2020/12/04 00:33:21;;;;;;;4.97;2.53;;;8.10;99.90;;;;;;5084543;28;20064;-46
2020/12/04 00:35:46;;;;;;;3.75;1.75;;;8.00;99.90;;;;;;5080032;28;20032;-47
2020/12/04 00:38:12;;;;;;;3.03;1.77;;;8.00;99.90;;;;;;5065578;28;20506;-51
2020/12/04 00:40:38;;;;;;;2.20;1.20;;;8.00;99.90;;;;;;5066955;28;20028;-47
2020/12/04 00:43:04;;;;;;;3.08;1.70;;;8.00;99.90;;;;;;5085385;28;20024;-48
2020/12/04 00:45:30;;;;;;;3.65;1.70;;;8.00;99.90;;;;;;5083130;28;20487;-48
2020/12/04 00:47:56;;;;;;;3.70;1.70;;;8.00;99.90;;;;;;5068157;28;20031;-47
2020/12/04 00:50:22;;;;;;;4.20;1.38;;;8.00;99.90;;;;;;5081118;28;20063;-47
2020/12/04 00:52:48;;;;;;;2.80;1.60;;;8.00;99.90;;;;;;5068048;28;20510;-47
2020/12/04 00:55:17;;;;;;;2.30;1.30;;;8.00;99.90;;;;;;5068531;28;20041;-47
2020/12/04 00:57:43;;;;;;;3.42;1.20;;;8.00;99.90;;;;;;5068258;28;20032;-48
2020/12/04 01:00:08;;;;;;;1.90;1.30;;;8.00;99.90;;;;;;5068152;28;20025;-49
2020/12/04 01:02:34;;;;;;;2.58;1.67;;;8.00;99.90;;;;;;5082849;28;20020;-46
2020/12/04 01:05:00;;;;;;;2.20;1.67;;;8.00;99.90;;;;;;5088072;28;20060;-48
2020/12/04 01:07:25;;;;;;;2.88;1.45;;;8.00;99.90;;;;;;5088674;28;20028;-48
2020/12/04 01:09:51;;;;;;;2.42;1.63;;;8.00;99.90;;;;;;5089298;28;20531;-48
2020/12/04 01:12:17;;;;;;;4.18;1.60;;;8.00;99.90;;;;;;5073279;28;20103;-48
2020/12/04 01:14:42;;;;;;;3.15;1.90;;;8.00;99.90;;;;;;5077088;28;20111;-48
2020/12/04 01:17:08;;;;;;;3.05;1.63;;;8.00;99.90;;;;;;5068075;28;20025;-47
2020/12/04 01:19:34;;;;;;;2.85;1.60;;;8.00;99.90;;;;;;5080368;28;20039;-48
2020/12/04 01:21:59;;;;;;;2.75;1.35;;;8.00;99.90;;;;;;5077776;28;20028;-47
2020/12/04 01:24:25;;;;;;;4.10;1.83;;;8.10;99.90;;;;;;5087120;28;20537;-47
2020/12/04 01:26:50;;;;;;;2.75;1.60;;;8.00;99.90;;;;;;5089156;28;20058;-47
2020/12/04 01:29:16;;;;;;;1.65;1.20;;;8.10;99.90;;;;;;5088455;28;20028;-50
2020/12/04 01:31:46;;;;;;;2.97;1.40;;;8.10;99.90;;;;;;5074658;28;20079;-48
2020/12/04 01:34:12;;;;;;;2.42;1.35;;;8.10;99.90;;;;;;5068446;28;20036;-50
2020/12/04 01:36:38;;;;;;;3.55;1.88;;;8.10;99.90;;;;;;5068291;28;20028;-46
2020/12/04 01:39:04;;;;;;;7.43;1.60;;;8.20;99.90;;;;;;5068208;28;20033;-50
2020/12/04 01:41:34;;;;;;;4.97;2.38;;;8.20;99.90;;;;;;5067931;28;20027;-48
2020/12/04 01:44:00;;;;;;;2.45;1.58;;;8.30;99.90;;;;;;5067021;28;20483;-47
2020/12/04 01:46:25;;;;;;;2.85;1.83;;;8.30;99.90;;;;;;5088050;28;20024;-47
2020/12/04 01:48:53;;;;;;;3.92;1.15;;;8.30;99.90;;;;;;5088715;28;20080;-47
2020/12/04 01:51:19;;;;;;;2.95;1.77;;;8.30;99.90;;;;;;5078743;28;20035;-50
2020/12/04 01:53:45;;;;;;;1.80;1.20;;;8.30;99.90;;;;;;5066260;28;20920;-50
2020/12/04 01:56:11;;;;;;;3.60;1.58;;;8.30;99.90;;;;;;5066522;28;20031;-49
2020/12/04 01:58:36;;;;;;;2.63;1.42;;;8.30;99.90;;;;;;5067054;28;20042;-47
2020/12/04 02:01:05;;;;;;;1.77;1.17;;;8.30;99.90;;;;;;5079370;28;20020;-49
2020/12/04 02:03:30;;;;;;;3.28;1.73;;;8.30;99.90;;;;;;5072648;28;20459;-49
2020/12/04 02:05:59;;;;;;;1.73;1.42;;;8.30;99.90;;;;;;5067594;28;20024;-50
2020/12/04 02:08:32;;;;;;;2.63;1.65;;;8.30;99.90;;;;;;5067737;28;20028;-46
2020/12/04 02:11:11;;;;;;;4.30;1.50;;;8.30;99.90;;;;;;5067077;28;20036;-48
2020/12/04 02:13:40;;;;;;;2.75;1.50;;;8.30;99.90;;;;;;5067328;28;20021;-49
2020/12/04 02:16:06;;;;;;;3.42;1.40;;;8.30;99.90;;;;;;5069526;28;20028;-48
2020/12/04 02:18:32;;;;;;;2.05;1.00;;;8.40;99.90;;;;;;5087631;28;20016;-47
2020/12/04 02:20:59;;;;;;;1.67;1.02;;;8.30;99.90;;;;;;5068697;28;20020;-47
2020/12/04 02:23:25;;;;;;;2.00;0.90;;;8.30;99.90;;;;;;5067536;28;20028;-47
2020/12/04 02:25:50;;;;;;;2.72;1.20;;;8.30;99.90;;;;;;5067795;28;20052;-50
2020/12/04 02:28:16;;;;;;;1.58;1.08;;;8.30;99.90;;;;;;5066329;28;20543;-48
2020/12/04 02:30:42;;;;;;;2.17;1.13;;;8.30;99.90;;;;;;5067582;28;20021;-48
2020/12/04 02:33:08;;;;;;;3.80;1.15;;;8.30;99.90;;;;;;5066732;28;20020;-48
2020/12/04 02:35:33;;;;;;;2.03;1.10;;;8.30;99.90;;;;;;5066372;28;20111;-48
2020/12/04 02:37:59;;;;;;;2.72;1.15;;;8.40;99.90;;;;;;5066595;28;20688;-49
2020/12/04 02:40:25;;;;;;;1.33;0.93;;;8.40;99.90;;;;;;5067000;28;20040;-50
2020/12/04 02:42:54;;;;;;;3.67;1.02;;;8.50;99.90;;;;;;5068608;28;20039;-51
2020/12/04 02:45:20;;;;;;;1.95;1.02;;;8.50;99.90;;;;;;5086234;28;20394;-48
2020/12/04 02:47:46;;;;;;;1.63;1.00;;;8.50;99.90;;;;;;5086754;28;20031;-49
2020/12/04 02:50:12;;;;;;;1.10;0.80;;;8.50;99.90;;;;;;5073487;28;20032;-49
2020/12/04 02:52:37;;;;;;;2.53;1.20;;;8.60;99.90;;;;;;5067525;28;20029;-48
2020/12/04 02:55:03;;;;;;;1.65;0.80;;;8.60;99.90;;;;;;5065861;28;20425;-47
2020/12/04 02:57:28;;;;;;;1.60;0.90;;;8.60;99.90;;;;;;5066449;28;20031;-46
2020/12/04 02:59:54;;;;;;;1.90;0.98;;;8.70;99.90;;;;;;5066464;28;20024;-46
2020/12/04 03:02:20;;;;;;;2.38;0.90;;;8.60;99.90;;;;;;5073952;28;20090;-47
2020/12/04 03:04:45;;;;;;;2.13;1.20;;;8.70;99.90;;;;;;5085015;28;20036;-49
2020/12/04 03:07:12;;;;;;;1.90;1.33;;;8.70;99.90;;;;;;5066181;28;20037;-51
2020/12/04 03:09:38;;;;;;;2.00;1.30;;;8.80;99.90;;;;;;5066814;28;20021;-50
2020/12/04 03:12:04;;;;;;;1.77;1.13;;;8.70;99.90;;;;;;5064934;28;20033;-50
2020/12/04 03:14:30;;;;;;;2.30;1.20;;;8.70;99.90;;;;;;5065748;28;20031;-49
2020/12/04 03:16:55;;;;;;;4.45;1.10;;;8.80;99.90;;;;;;5084075;28;20028;-49
2020/12/04 03:19:21;;;;;;;2.33;1.20;;;8.70;99.90;;;;;;5086686;28;20573;-50
2020/12/04 03:21:47;;;;;;;2.28;0.88;;;8.70;99.90;;;;;;5085659;28;20483;-50
2020/12/04 03:24:12;;;;;;;1.83;1.00;;;8.60;99.90;;;;;;5084322;28;20089;-50
2020/12/04 03:26:38;;;;;;;2.40;0.90;;;8.60;99.90;;;;;;5086873;28;20442;-50
2020/12/04 03:29:04;;;;;;;1.45;0.77;;;8.60;99.90;;;;;;5086801;28;20059;-50
2020/12/04 03:31:30;;;;;;;1.75;0.90;;;8.50;99.90;;;;;;5073819;28;20060;-50
2020/12/04 03:33:55;;;;;;;2.03;1.38;;;8.50;99.90;;;;;;5066051;28;20548;-48
2020/12/04 03:36:21;;;;;;;2.90;1.00;;;8.60;99.90;;;;;;5065857;28;20020;-52
2020/12/04 03:38:47;;;;;;;2.08;1.00;;;8.60;99.90;;;;;;5066122;28;20070;-47
2020/12/04 03:41:12;;;;;;;4.72;1.15;;;8.60;99.90;;;;;;5073258;28;20047;-48
2020/12/04 03:43:40;;;;;;;3.72;1.25;;;8.50;99.90;;;;;;5085930;28;20406;-48
2020/12/04 03:46:12;;;;;;;1.67;1.10;;;8.50;99.90;;;;;;5084557;28;20039;-51
2020/12/04 03:48:39;;;;;;;3.38;1.48;;;8.50;99.90;;;;;;5085823;28;20032;-46
2020/12/04 03:51:05;;;;;;;2.45;0.85;;;8.40;99.90;;;;;;5085174;28;20192;-49
2020/12/04 03:53:32;;;;;;;3.55;1.10;;;8.40;99.90;;;;;;5086077;28;20414;-49
2020/12/04 03:55:58;;;;;;;2.85;1.27;;;8.40;99.90;;;;;;5066126;28;20025;-47
2020/12/04 03:58:23;;;;;;;1.58;0.90;;;8.30;99.90;;;;;;5065949;28;20021;-47
2020/12/04 04:00:49;;;;;;;1.98;1.10;;;8.30;99.90;;;;;;5079522;28;20078;-47
2020/12/04 04:03:15;;;;;;;1.38;0.90;;;8.20;99.90;;;;;;5085763;28;20028;-48
2020/12/04 04:05:40;;;;;;;2.47;1.33;;;8.20;99.90;;;;;;5085153;28;20028;-49
2020/12/04 04:08:06;;;;;;;2.83;1.00;;;8.10;99.90;;;;;;5084727;28;20040;-48
2020/12/04 04:10:32;;;;;;;2.42;0.95;;;8.00;99.90;;;;;;5083626;28;20046;-49
2020/12/04 04:12:57;;;;;;;2.28;0.88;;;7.90;99.90;;;;;;5067796;28;20024;-47
2020/12/04 04:15:23;;;;;;;3.42;1.10;;;7.80;99.90;;;;;;5064768;28;20092;-47
2020/12/04 04:17:49;;;;;;;2.08;1.10;;;7.90;99.90;;;;;;5074630;28;20032;-47
2020/12/04 04:20:14;;;;;;;2.03;1.00;;;7.90;99.90;;;;;;5088840;28;20073;-47
2020/12/04 04:22:40;;;;;;;1.80;0.95;;;7.90;99.90;;;;;;5089682;28;20055;-48
2020/12/04 04:25:05;;;;;;;4.25;1.10;;;7.90;99.90;;;;;;5086827;28;20047;-48
2020/12/04 04:27:31;;;;;;;1.40;0.82;;;7.90;99.90;;;;;;5089748;28;20533;-50
2020/12/04 04:29:57;;;;;;;2.97;1.02;;;7.90;99.90;;;;;;5088908;28;20024;-47
2020/12/04 04:32:23;;;;;;;2.28;0.90;;;7.90;99.90;;;;;;5070221;28;20184;-49
2020/12/04 04:34:48;;;;;;;2.20;0.98;;;7.90;99.90;;;;;;5072075;28;20028;-47
2020/12/04 04:37:14;;;;;;;3.05;1.10;;;7.80;99.90;;;;;;5078741;28;20036;-51
2020/12/04 04:39:42;;;;;;;3.25;0.93;;;7.80;99.90;;;;;;5080380;28;20494;-50
2020/12/04 04:42:09;;;;;;;2.70;1.35;;;7.80;99.90;;;;;;5076535;28;20024;-51
2020/12/04 04:44:35;;;;;;;2.40;1.50;;;7.80;99.90;;;;;;5068678;28;20043;-51
2020/12/04 04:47:11;;;;;;;3.30;1.52;;;7.70;99.90;;;;;;5068919;28;20028;-48
2020/12/04 04:49:47;;;;;;;4.72;1.80;;;7.70;99.90;;;;;;5074656;28;20043;-50
2020/12/04 04:52:15;;;;;;;1.65;1.05;;;7.50;99.90;;;;;;5077516;28;20077;-49
2020/12/04 04:54:48;;;;;;;5.18;1.77;;;7.40;99.90;;;;;;5088148;28;20047;-47
2020/12/04 04:57:19;;;;;;;3.00;1.42;;;7.40;99.90;;;;;;5089244;28;20032;-47
2020/12/04 04:59:44;;;;;;;3.10;1.20;;;7.40;99.90;;;;;;5080691;28;20099;-47
2020/12/04 05:02:11;;;;;;;2.45;1.40;;;7.20;99.90;;;;;;5084220;28;20161;-46
2020/12/04 05:04:50;;;;;;;2.85;1.40;;;7.20;99.90;;;;;;5089017;28;20511;-50
2020/12/04 05:07:17;;;;;;;2.72;1.20;;;7.10;99.90;;;;;;5085873;28;20545;-50
2020/12/04 05:09:43;;;;;;;2.40;1.10;;;7.10;99.90;;;;;;5081615;28;20024;-48
2020/12/04 05:12:09;;;;;;;7.32;2.47;;;7.10;99.90;;;;;;5067549;28;20095;-48
2020/12/04 05:14:34;;;;;;;5.35;1.83;;;7.00;99.90;;;;;;5074877;28;20031;-47
2020/12/04 05:17:08;;;;;;;4.10;1.48;;;7.00;99.90;;;;;;5088523;28;20038;-48
2020/12/04 05:19:37;;;;;;;2.47;1.20;;;7.10;99.90;;;;;;5082498;28;20420;-48
2020/12/04 05:22:16;;;;;;;4.22;1.13;;;7.10;99.90;;;;;;5071131;28;20050;-47
2020/12/04 05:24:44;;;;;;;3.80;1.40;;;7.10;99.90;;;;;;5074548;28;20307;-49
2020/12/04 05:27:30;;;;;;;4.28;1.33;;;7.10;99.90;;;;;;5088451;28;20024;-49
2020/12/04 05:29:59;;;;;;;3.58;1.08;;;7.10;99.90;;;;;;5086482;28;20028;-49
2020/12/04 05:32:26;;;;;;;2.42;1.00;;;7.10;99.90;;;;;;5084875;28;20028;-48
2020/12/04 05:35:05;;;;;;;2.38;0.90;;;7.10;99.90;;;;;;5083819;28;20514;-49
2020/12/04 05:37:31;;;;;;;4.63;1.10;;;7.10;99.90;;;;;;5068311;28;20135;-48
2020/12/04 05:39:56;;;;;;;2.15;1.08;;;7.10;99.90;;;;;;5068076;28;20092;-50
2020/12/04 05:42:48;;;;;;;2.15;0.95;;;7.10;99.90;;;;;;5067966;28;20032;-50
2020/12/04 05:45:14;;;;;;;3.47;1.23;;;7.20;99.90;;;;;;5077818;28;20040;-48
2020/12/04 05:47:43;;;;;;;2.53;1.40;;;7.20;99.90;;;;;;5088534;28;20028;-47
2020/12/04 05:50:11;;;;;;;3.83;1.20;;;7.10;99.90;;;;;;5078232;28;20037;-48
2020/12/04 05:52:37;;;;;;;1.90;1.10;;;7.20;99.90;;;;;;5067407;28;20166;-50
2020/12/04 05:55:04;;;;;;;5.88;1.77;;;7.20;99.90;;;;;;5067187;28;20025;-48
2020/12/04 05:57:40;;;;;;;2.88;1.48;;;7.20;99.90;;;;;;5067856;28;20013;-51
2020/12/04 06:00:06;;;;;;;1.42;1.10;;;7.20;99.90;;;;;;5072564;28;20091;-48
2020/12/04 06:02:31;;;;;;;2.30;1.15;;;7.20;99.90;;;;;;5067203;28;20454;-48
2020/12/04 06:04:57;;;;;;;3.33;1.25;;;7.10;99.90;;;;;;5067559;28;20982;-48
2020/12/04 06:07:27;;;;;;;1.67;1.02;;;7.20;99.90;;;;;;5067865;28;20370;-49
2020/12/04 06:09:56;;;;;;;3.63;1.98;;;7.20;99.90;;;;;;5067097;28;20020;-50
2020/12/04 06:12:23;;;;;;;2.53;1.38;;;7.10;99.90;;;;;;5071221;28;20051;-49
2020/12/04 06:14:49;;;;;;;1.27;1.00;;;7.20;99.90;;;;;;5074981;28;20072;-49
2020/12/04 06:17:15;;;;;;;4.18;1.60;;;7.20;99.90;;;;;;5086619;28;20032;-47
2020/12/04 06:19:42;;;;;;;2.55;1.50;;;7.20;99.90;;;;;;5080884;28;20081;-50
2020/12/04 06:22:18;;;;;;;3.58;1.67;;;7.20;99.90;;;;;;5068184;28;20039;-47
2020/12/04 06:24:56;;;;;;;3.38;1.50;;;7.20;99.90;;;;;;5067407;28;20020;-49
2020/12/04 06:27:42;;;;;;;2.25;1.15;;;7.20;99.90;;;;;;5067955;28;20029;-49
2020/12/04 06:30:10;;;;;;;3.35;1.55;;;7.20;99.90;;;;;;5067007;28;20098;-49
2020/12/04 06:32:48;;;;;;;4.20;1.95;;;7.20;99.90;;;;;;5066990;28;20036;-49
2020/12/04 06:35:35;;;;;;;5.93;2.80;;;7.30;99.90;;;;;;5065377;28;20029;-48
2020/12/04 06:38:01;;;;;;;11.00;4.85;;;7.20;99.90;;;;;;5066816;28;20460;-47
2020/12/04 06:40:30;;;;;;;4.70;2.03;;;7.20;99.90;;;;;;5074774;28;20024;-49
2020/12/04 06:43:00;;;;;;;3.33;1.60;;;7.30;99.90;;;;;;5073051;28;20108;-52
2020/12/04 06:45:48;;;;;;;7.72;2.42;;;7.30;99.90;;;;;;5072682;28;20516;-47
2020/12/04 06:48:17;;;;;;;6.43;2.88;;;7.30;99.90;;;;;;5066520;28;20070;-48
2020/12/04 06:50:48;;;;;;;4.30;2.33;;;7.40;99.90;;;;;;5066065;28;20047;-49
2020/12/04 06:53:15;;;;;;;6.45;2.88;;;7.40;99.90;;;;;;5066145;28;20479;-48
2020/12/04 06:55:42;;;;;;;5.38;2.97;;;7.40;99.90;;;;;;5080805;28;20024;-49
2020/12/04 06:58:08;;;;;;;3.05;1.80;;;7.40;99.90;;;;;;5066481;28;20040;-48
2020/12/04 07:00:35;;;;;;;2.13;1.15;;;7.40;99.90;;;;;;5070129;28;20028;-49
2020/12/04 07:03:03;;;;;;;2.75;1.40;;;7.30;99.90;;;;;;5066013;28;20032;-47
2020/12/04 07:05:32;;;;;;;1.35;0.93;;;7.20;99.90;;;;;;5071240;28;20039;-48
2020/12/04 07:08:06;;;;;;;0.82;0.60;;;7.00;99.90;;;;;;5066308;28;20095;-48
2020/12/04 07:10:33;;;;;;;0.60;0.50;;;6.80;99.90;;;;;;5068159;28;20035;-47
2020/12/04 07:13:01;;;;;;;0.75;0.60;;;6.80;99.90;;;;;;5085059;28;20090;-45
2020/12/04 07:15:30;;;;;;;1.00;0.60;;;6.80;99.90;;;;;;5079230;28;20043;-45
2020/12/04 07:17:57;;;;;;;0.70;0.60;;;6.70;99.90;;;;;;5079223;28;20020;-46
2020/12/04 07:20:33;;;;;;;0.98;0.70;;;6.70;99.90;;;;;;5075706;28;20020;-46
2020/12/04 07:22:58;;;;;;;0.60;0.50;;;6.60;99.90;;;;;;5069213;28;20103;-45
2020/12/04 07:25:24;;;;;;;2.20;0.80;;;6.50;99.90;;;;;;5066129;28;20107;-46
2020/12/04 07:27:50;;;;;;;0.70;0.50;;;6.50;99.90;;;;;;5066815;28;20032;-44
2020/12/04 07:30:16;;;;;;;1.48;0.80;;;6.40;99.90;;;;;;5066125;28;20033;-44
2020/12/04 07:32:54;;;;;;;2.97;0.80;;;6.40;99.90;;;;;;5065256;28;20047;-45
2020/12/04 07:35:22;;;;;;;1.10;0.70;;;6.40;99.90;;;;;;5066912;28;20024;-44
2020/12/04 07:37:48;;;;;;;0.82;0.40;;;6.30;99.90;;;;;;5066120;28;20016;-45
2020/12/04 07:40:15;;;;;;;1.35;0.68;;;6.30;99.90;;;;;;5078410;28;20024;-48
2020/12/04 07:42:42;;;;;;;1.20;0.50;;;6.30;99.90;;;;;;5075940;28;20443;-44
2020/12/04 07:45:13;;;;;;;0.60;0.43;;;6.30;99.90;;;;;;5085727;28;20060;-45
2020/12/04 07:47:42;;;;;;;1.48;0.63;;;6.20;99.90;;;;;;5068319;28;20029;-45
2020/12/04 07:50:10;;;;;;;1.05;0.85;;;6.20;99.90;;;;;;5065591;28;20021;-45
2020/12/04 07:52:36;;;;;;;3.97;1.20;;;6.10;99.90;;;;;;5065172;28;20052;-45
2020/12/04 07:55:03;;;;;;;1.80;1.00;;;6.10;99.90;;;;;;5069511;28;20029;-45
2020/12/04 07:57:39;;;;;;;0.85;0.68;;;6.00;99.90;;;;;;5069791;28;20052;-46
2020/12/04 08:00:09;;;;;;;0.90;0.52;;;5.90;99.90;;;;;;5069725;28;20048;-46
2020/12/04 08:02:35;;;;;;;0.47;0.40;;;6.00;99.90;;;;;;5069870;28;20441;-45
2020/12/04 08:05:01;;;;;;;0.30;0.30;;;5.90;99.90;;;;;;5070176;28;20036;-45
2020/12/04 08:07:31;;;;;;;0.40;0.40;;;5.90;99.90;;;;;;5070893;28;20032;-47
2020/12/04 08:09:59;;;;;;;0.57;0.57;;;5.90;99.90;;;;;;5068580;28;20032;-46
2020/12/04 08:12:32;;;;;;;0.50;0.50;;;5.80;99.90;;;;;;5069821;28;20402;-44
2020/12/04 08:15:00;;;;;;;2.33;1.38;;;6.00;99.90;;;;;;5072195;28;20028;-45
2020/12/04 08:17:29;;;;;;;1.38;0.80;;;5.90;99.90;;;;;;5073641;28;20137;-45
2020/12/04 08:19:56;;;;;;;1.88;1.00;;;6.00;99.90;;;;;;5087118;28;20032;-45
2020/12/04 08:22:30;;;;;;;1.58;0.80;;;5.90;99.90;;;;;;5088849;28;20020;-44
2020/12/04 08:25:04;;;;;;;1.03;0.90;;;6.00;99.90;;;;;;5082238;28;20036;-45
2020/12/04 08:27:43;;;;;;;4.85;1.05;;;6.00;99.90;;;;;;5079296;28;20024;-47
2020/12/04 08:30:16;;;;;;;0.93;0.80;;;6.00;99.90;;;;;;5077579;28;20505;-45
2020/12/04 08:32:59;;;;;;;1.67;0.80;;;6.10;99.90;;;;;;5083693;28;20032;-45
2020/12/04 08:35:33;;;;;;;0.90;0.60;;;6.00;99.90;;;;;;5082204;28;20028;-47
2020/12/04 08:38:08;;;;;;;;;;;6.00;99.90;;;;;;5069453;28;20103;-44
2020/12/04 08:40:35;;;;;;;2.10;1.23;;;6.10;99.90;;;;;;5077113;28;20259;-44
2020/12/04 08:43:13;;;;;;;2.25;1.20;;;6.00;99.90;;;;;;5071078;28;20101;-45
2020/12/04 08:45:44;;;;;;;3.25;1.30;;;5.90;99.90;;;;;;5077116;28;20497;-47
2020/12/04 08:48:14;;;;;;;2.75;1.80;;;6.00;99.90;;;;;;5074204;28;20029;-55
2020/12/04 08:50:52;;;;;;;2.00;1.20;;;6.10;99.90;;;;;;5083630;28;20024;-55
2020/12/04 08:53:19;;;;;;;1.75;1.00;;;6.10;99.90;;;;;;5085842;28;20020;-55
2020/12/04 08:55:53;;;;;;;2.25;1.30;;;6.10;99.90;;;;;;5072557;28;20067;-56
2020/12/04 08:58:20;;;;;;;3.58;2.10;;;6.00;99.90;;;;;;5089473;28;20462;-55
2020/12/04 09:00:48;;;;;;;4.30;2.42;;;6.20;99.90;;;;;;5080409;28;20039;-53
2020/12/04 09:03:15;;;;;;;4.65;2.20;;;6.10;99.90;;;;;;5068387;28;20032;-54
2020/12/04 09:05:41;;;;;;;3.10;1.73;;;6.10;99.90;;;;;;5068318;28;20059;-54
2020/12/04 09:08:07;;;;;;;3.55;2.05;;;6.30;99.90;;;;;;5070793;28;20033;-55
2020/12/04 09:10:34;;;;;;;3.42;1.50;;;6.00;99.90;;;;;;5074613;28;20105;-56
2020/12/04 09:13:00;;;;;;;4.18;1.83;;;6.00;99.90;;;;;;5075362;28;20574;-53
2020/12/04 09:15:27;;;;;;;2.78;1.65;;;6.10;99.90;;;;;;5075546;28;20077;-55
2020/12/04 09:17:54;;;;;;;2.70;1.30;;;6.10;99.90;;;;;;5088017;28;20024;-56
2020/12/04 09:20:20;;;;;;;1.50;1.00;;;5.90;99.90;;;;;;5082977;28;20485;-56
2020/12/04 09:22:45;;;;;;;3.38;1.67;;;6.00;99.90;;;;;;5068399;28;20081;-55
2020/12/04 09:25:14;;;;;;;5.22;2.47;;;6.20;99.90;;;;;;5070737;28;20102;-55
2020/12/04 09:27:41;;;;;;;4.38;2.40;;;6.00;99.90;;;;;;5078595;28;20158;-55
2020/12/04 09:30:12;;;;;;;2.92;1.73;;;5.90;99.90;;;;;;5088824;28;20429;-56
2020/12/04 09:32:38;;;;;;;2.90;1.88;;;5.90;99.90;;;;;;5088550;28;20398;-55
2020/12/04 09:35:07;;;;;;;2.85;1.85;;;5.90;99.90;;;;;;5080002;28;20027;-56
2020/12/04 09:37:34;;;;;;;1.77;1.40;;;5.90;99.90;;;;;;5088367;28;20024;-55
2020/12/04 09:40:08;;;;;;;2.88;1.60;;;6.10;99.90;;;;;;5074878;28;20028;-55
2020/12/04 09:42:34;;;;;;;;;;;6.00;99.90;;;;;;5068377;28;20103;-54
2020/12/04 09:45:00;;;;;;;2.17;1.40;;;6.00;99.90;;;;;;5070012;28;19987;-55
2020/12/04 09:47:29;;;;;;;2.03;1.20;;;6.00;99.90;;;;;;5068116;28;20095;-56
2020/12/04 09:49:56;;;;;;;1.30;0.90;;;6.10;99.90;;;;;;5066535;28;20515;-54
2020/12/04 09:52:22;;;;;;;1.15;0.93;;;6.20;99.90;;;;;;5072265;28;20061;-55
2020/12/04 09:54:48;;;;;;;1.55;0.98;;;6.20;99.90;;;;;;5087135;28;20023;-53
2020/12/04 09:57:17;;;;;;;1.58;0.90;;;6.10;99.90;;;;;;5072544;28;20391;-54
2020/12/04 09:59:44;;;;;;;1.15;0.70;;;6.10;99.90;;;;;;5086127;28;20024;-54
2020/12/04 10:02:11;;;;;;;0.50;0.50;;;6.10;99.90;;;;;;5082210;28;20466;-55
2020/12/04 10:04:40;;;;;;;0.95;0.70;;;6.30;99.90;;;;;;5076160;28;20085;-54
2020/12/04 10:07:08;;;;;;;1.38;1.00;;;6.20;99.90;;;;;;5071835;28;20165;-55
2020/12/04 10:09:34;;;;;;;1.60;1.00;;;6.00;99.90;;;;;;5085759;28;20039;-54
2020/12/04 10:12:00;;;;;;;1.50;1.10;;;6.20;99.90;;;;;;5079660;28;20092;-54
2020/12/04 10:14:26;;;;;;;1.60;1.17;;;6.20;99.90;;;;;;5074314;28;20841;-55
2020/12/04 10:16:52;;;;;;;1.80;1.20;;;6.40;99.90;;;;;;5087124;28;20035;-55
2020/12/04 10:19:19;;;;;;;1.80;1.40;;;6.40;99.90;;;;;;5077521;28;20036;-54
2020/12/04 10:21:46;;;;;;;1.90;1.70;;;6.30;99.90;;;;;;5067409;28;20021;-55
2020/12/04 10:24:13;;;;;;;4.80;3.15;;;6.30;99.90;;;;;;5066877;28;20055;-53
2020/12/04 10:26:41;;;;;;;4.80;3.40;;;6.20;99.90;;;;;;5068766;28;20456;-54
2020/12/04 10:29:07;;;;;;;3.80;2.78;;;6.20;99.90;;;;;;5074363;28;20044;-54
2020/12/04 10:31:33;;;;;;;3.83;2.17;;;6.20;99.90;;;;;;5077097;28;20107;-53
2020/12/04 10:34:00;;;;;;;2.88;2.25;;;6.20;99.90;;;;;;5069881;28;20033;-54
2020/12/04 10:36:27;;;;;;;2.95;1.98;;;6.20;99.90;;;;;;5065117;28;20030;-53
2020/12/04 10:38:57;;;;;;;2.63;1.67;;;6.20;99.90;;;;;;5065306;28;20031;-55
2020/12/04 10:41:23;;;;;;;1.50;1.30;;;6.20;99.90;;;;;;5064307;28;20056;-53
2020/12/04 10:43:49;;;;;;;2.92;2.08;;;6.40;99.90;;;;;;5065299;28;20025;-53
2020/12/04 10:46:15;;;;;;;2.83;1.98;;;6.40;99.90;;;;;;5064299;28;20020;-53
2020/12/04 10:48:41;;;;;;;2.33;1.95;;;6.50;99.90;;;;;;5065400;28;20089;-54
2020/12/04 10:51:07;;;;;;;1.92;1.73;;;6.50;99.90;;;;;;5074307;28;20581;-51
2020/12/04 10:53:33;;;;;;;2.78;1.70;;;6.50;99.90;;;;;;5066383;28;20028;-53
2020/12/04 10:55:58;;;;;;;1.83;1.30;;;6.50;99.90;;;;;;5075575;28;20043;-53
2020/12/04 10:58:24;;;;;;;1.40;1.10;;;6.40;99.90;;;;;;5083385;28;20028;-49
2020/12/04 11:00:50;;;;;;;2.00;1.30;;;6.40;99.90;;;;;;5072698;28;20024;-52
2020/12/04 11:03:42;;;;;;;3.63;2.42;;;6.30;99.90;;;;;;5065059;28;20025;-53
2020/12/04 11:06:07;;;;;;;2.83;2.17;;;6.20;99.90;;;;;;5065368;28;20529;-49
2020/12/04 11:08:33;;;;;;;4.13;2.45;;;6.30;99.90;;;;;;5065866;28;20036;-52
2020/12/04 11:10:59;;;;;;;3.17;2.38;;;6.40;99.90;;;;;;5065217;28;20086;-49
2020/12/04 11:13:24;;;;;;;3.58;2.55;;;6.40;99.90;;;;;;5072649;28;20469;-51
2020/12/04 11:15:50;;;;;;;3.95;2.88;;;6.40;99.90;;;;;;5086427;28;20047;-49
2020/12/04 11:18:16;;;;;;;3.78;2.58;;;6.40;99.90;;;;;;5077615;28;20079;-51
2020/12/04 11:20:42;;;;;;;4.47;2.58;;;6.20;99.90;;;;;;5065467;28;20025;-50
2020/12/04 11:23:08;;;;;;;3.83;2.20;;;6.20;99.90;;;;;;5067747;28;20153;-49
2020/12/04 11:25:34;;;;;;;2.70;1.83;;;6.10;99.90;;;;;;5074580;28;20069;-50
2020/12/04 11:27:59;;;;;;;2.72;1.35;;;6.10;99.90;;;;;;5085511;28;20103;-50
2020/12/04 11:30:25;;;;;;;2.28;1.42;;;6.00;99.90;;;;;;5073309;28;20119;-50
2020/12/04 11:32:52;;;;;;;3.05;1.40;;;5.80;99.90;;;;;;5066291;28;20123;-53
2020/12/04 11:35:19;;;;;;;2.13;1.25;;;5.60;99.90;;;;;;5066021;28;20047;-51
2020/12/04 11:37:48;;;;;;;2.47;1.48;;;5.60;99.90;;;;;;5064997;28;20052;-49
2020/12/04 11:40:16;;;;;;;1.45;0.90;;;5.60;99.90;;;;;;5072655;28;20440;-51
2020/12/04 11:42:43;;;;;;;2.80;1.50;;;5.50;99.90;;;;;;5084391;28;20393;-51
2020/12/04 11:45:11;;;;;;;4.28;1.83;;;5.60;99.90;;;;;;5070927;28;20071;-50
2020/12/04 11:47:38;;;;;;;2.53;1.70;;;5.50;99.90;;;;;;5063853;28;20037;-49
2020/12/04 11:50:13;;;;;;;3.15;1.73;;;5.60;99.90;;;;;;5063673;28;20038;-51
2020/12/04 11:52:38;;;;;;;2.63;1.65;;;5.50;99.90;;;;;;5079728;28;20035;-52
2020/12/04 11:55:05;;;;;;;1.98;1.30;;;5.50;99.90;;;;;;5099663;28;20242;-52
2020/12/04 11:57:32;;;;;;;5.18;2.53;;;5.60;99.90;;;;;;5089356;28;20109;-50
2020/12/04 11:59:59;;;;;;;5.32;2.80;;;5.10;99.90;;;;;;5083207;28;20035;-50
2020/12/04 12:02:25;;;;;;;4.55;2.45;;;5.10;99.90;;;;;;5084031;28;20078;-49
2020/12/04 12:04:52;;;;;;;4.47;1.95;;;5.30;99.90;;;;;;5084337;28;20402;-52
2020/12/04 12:07:18;;;;;;;6.57;3.17;;;5.30;99.90;;;;;;5084217;28;20032;-49
2020/12/04 12:09:48;;;;;;;5.53;2.63;;;5.10;99.90;;;;;;5083689;28;20085;-54
2020/12/04 12:12:17;;;;;;;5.65;2.35;;;5.30;99.90;;;;;;5083434;28;20054;-53
2020/12/04 12:14:44;;;;;;;3.03;1.80;;;5.30;99.90;;;;;;5074876;28;20573;-52
2020/12/04 12:17:15;;;;;;;3.42;1.90;;;5.50;99.90;;;;;;5070994;28;20032;-49
2020/12/04 12:19:41;;;;;;;3.78;2.08;;;5.60;99.90;;;;;;5076180;28;20021;-53
2020/12/04 12:22:09;;;;;;;4.07;2.25;;;5.30;99.90;;;;;;5063065;28;20026;-51
2020/12/04 12:24:39;;;;;;;3.67;2.00;;;5.50;99.90;;;;;;5063795;28;20017;-52
2020/12/04 12:27:06;;;;;;;4.70;2.33;;;5.60;99.90;;;;;;5062926;28;20036;-53
2020/12/04 12:29:31;;;;;;;6.88;2.53;;;5.70;99.90;;;;;;5063574;28;20143;-53
2020/12/04 12:31:59;;;;;;;5.07;2.47;;;5.70;99.90;;;;;;5063777;28;20064;-52
2020/12/04 12:37:11;;;;;;;4.68;2.10;;;5.60;99.90;;;;;;5066871;28;20050;-51
2020/12/04 12:39:38;;;;;;;6.43;2.72;;;5.50;99.90;;;;;;5085004;28;20035;-52
2020/12/04 12:42:14;;;;;;;3.08;1.67;;;5.40;99.90;;;;;;5086777;28;20484;-51
2020/12/04 12:44:40;;;;;;;3.70;1.80;;;5.50;99.90;;;;;;5087263;28;20024;-53
2020/12/04 12:47:05;;;;;;;2.95;1.80;;;5.50;99.90;;;;;;5086727;28;20128;-52
2020/12/04 12:49:32;;;;;;;3.22;2.00;;;5.50;99.90;;;;;;5086336;28;20111;-50
2020/12/04 12:51:58;;;;;;;3.38;2.42;;;5.60;99.90;;;;;;5086802;28;20028;-49
2020/12/04 12:54:30;;;;;;;3.03;1.77;;;5.50;99.90;;;;;;5087197;28;20024;-49
2020/12/04 12:56:57;;;;;;;3.10;2.08;;;5.50;99.90;;;;;;5081086;28;20032;-48
2020/12/04 12:59:24;;;;;;;4.15;1.98;;;5.30;99.90;;;;;;5066725;28;20078;-52
2020/12/04 13:01:51;;;;;;;3.42;1.90;;;5.40;99.90;;;;;;5066179;28;20067;-51
2020/12/04 13:04:18;;;;;;;3.50;2.03;;;5.40;99.90;;;;;;5067555;28;20554;-50